sensor_id;sensor_type;location;lat;lon;timestamp;temperature;humidity
72905;DHT22;61048;52.162;4.516;2023-03-23T00:00:59;16.50;65.00
72905;DHT22;61048;52.162;4.516;2023-03-23T00:03:27;16.50;64.90
72905;DHT22;61048;52.162;4.516;2023-03-23T00:05:57;16.50;64.90
72905;DHT22;61048;52.162;4.516;2023-03-23T00:08:32;16.50;64.90
72905;DHT22;61048;52.162;4.516;2023-03-23T00:10:59;16.50;64.90
72905;DHT22;61048;52.162;4.516;2023-03-23T00:13:27;16.50;64.80
72905;DHT22;61048;52.162;4.516;2023-03-23T00:15:55;16.50;64.90
72905;DHT22;61048;52.162;4.516;2023-03-23T00:18:23;16.50;64.80
72905;DHT22;61048;52.162;4.516;2023-03-23T00:20:52;16.50;64.80
72905;DHT22;61048;52.162;4.516;2023-03-23T00:23:21;16.50;64.80
72905;DHT22;61048;52.162;4.516;2023-03-23T00:25:51;16.50;64.80
72905;DHT22;61048;52.162;4.516;2023-03-23T00:28:22;16.50;64.90
72905;DHT22;61048;52.162;4.516;2023-03-23T00:30:55;16.50;64.80
72905;DHT22;61048;52.162;4.516;2023-03-23T00:33:22;16.50;64.80
72905;DHT22;61048;52.162;4.516;2023-03-23T00:35:49;16.50;64.80
72905;DHT22;61048;52.162;4.516;2023-03-23T00:38:18;16.50;64.90
72905;DHT22;61048;52.162;4.516;2023-03-23T00:40:45;16.50;64.80
72905;DHT22;61048;52.162;4.516;2023-03-23T00:43:14;16.50;64.90
72905;DHT22;61048;52.162;4.516;2023-03-23T00:45:42;16.50;64.80
72905;DHT22;61048;52.162;4.516;2023-03-23T00:48:10;16.50;65.00
72905;DHT22;61048;52.162;4.516;2023-03-23T00:50:38;16.50;64.90
72905;DHT22;61048;52.162;4.516;2023-03-23T00:53:05;16.50;64.90
72905;DHT22;61048;52.162;4.516;2023-03-23T00:55:31;16.50;64.80
72905;DHT22;61048;52.162;4.516;2023-03-23T00:57:59;16.50;64.90
72905;DHT22;61048;52.162;4.516;2023-03-23T01:00:30;16.50;64.90
72905;DHT22;61048;52.162;4.516;2023-03-23T01:02:57;16.50;64.90
72905;DHT22;61048;52.162;4.516;2023-03-23T01:05:24;16.50;64.80
72905;DHT22;61048;52.162;4.516;2023-03-23T01:07:57;16.50;64.80
72905;DHT22;61048;52.162;4.516;2023-03-23T01:10:24;16.50;64.80
72905;DHT22;61048;52.162;4.516;2023-03-23T01:12:52;16.50;64.90
72905;DHT22;61048;52.162;4.516;2023-03-23T01:15:20;16.50;64.90
72905;DHT22;61048;52.162;4.516;2023-03-23T01:17:48;16.50;64.90
72905;DHT22;61048;52.162;4.516;2023-03-23T01:20:16;16.50;64.90
72905;DHT22;61048;52.162;4.516;2023-03-23T01:22:43;16.50;64.90
72905;DHT22;61048;52.162;4.516;2023-03-23T01:25:11;16.50;64.80
72905;DHT22;61048;52.162;4.516;2023-03-23T01:27:39;16.50;65.00
72905;DHT22;61048;52.162;4.516;2023-03-23T01:30:08;16.50;64.90
72905;DHT22;61048;52.162;4.516;2023-03-23T01:32:37;16.50;65.00
72905;DHT22;61048;52.162;4.516;2023-03-23T01:35:06;16.50;64.90
72905;DHT22;61048;52.162;4.516;2023-03-23T01:37:33;16.50;64.90
72905;DHT22;61048;52.162;4.516;2023-03-23T01:40:02;16.60;64.90
72905;DHT22;61048;52.162;4.516;2023-03-23T01:42:31;16.50;64.90
72905;DHT22;61048;52.162;4.516;2023-03-23T01:45:22;16.50;64.90
72905;DHT22;61048;52.162;4.516;2023-03-23T01:47:52;16.50;64.90
72905;DHT22;61048;52.162;4.516;2023-03-23T01:50:24;16.60;65.00
72905;DHT22;61048;52.162;4.516;2023-03-23T01:52:52;16.50;64.90
72905;DHT22;61048;52.162;4.516;2023-03-23T01:55:21;16.50;64.90
72905;DHT22;61048;52.162;4.516;2023-03-23T01:57:49;16.50;64.90
72905;DHT22;61048;52.162;4.516;2023-03-23T02:00:16;16.50;64.90
72905;DHT22;61048;52.162;4.516;2023-03-23T02:02:44;16.50;64.80
72905;DHT22;61048;52.162;4.516;2023-03-23T02:05:15;16.50;64.90
72905;DHT22;61048;52.162;4.516;2023-03-23T02:07:47;16.50;64.90
72905;DHT22;61048;52.162;4.516;2023-03-23T02:10:16;16.50;64.90
72905;DHT22;61048;52.162;4.516;2023-03-23T02:12:43;16.50;64.90
72905;DHT22;61048;52.162;4.516;2023-03-23T02:15:10;16.50;64.90
72905;DHT22;61048;52.162;4.516;2023-03-23T02:17:41;16.50;65.00
72905;DHT22;61048;52.162;4.516;2023-03-23T02:20:19;16.60;65.00
72905;DHT22;61048;52.162;4.516;2023-03-23T02:23:27;16.50;65.00
72905;DHT22;61048;52.162;4.516;2023-03-23T02:26:16;16.50;64.90
72905;DHT22;61048;52.162;4.516;2023-03-23T02:29:01;16.50;65.00
72905;DHT22;61048;52.162;4.516;2023-03-23T02:31:55;16.60;65.10
72905;DHT22;61048;52.162;4.516;2023-03-23T02:34:27;16.60;65.00
72905;DHT22;61048;52.162;4.516;2023-03-23T02:36:59;16.60;64.90
72905;DHT22;61048;52.162;4.516;2023-03-23T02:39:29;16.50;65.00
72905;DHT22;61048;52.162;4.516;2023-03-23T02:42:01;16.60;64.90
72905;DHT22;61048;52.162;4.516;2023-03-23T02:44:30;16.60;64.90
72905;DHT22;61048;52.162;4.516;2023-03-23T02:47:00;16.60;64.90
72905;DHT22;61048;52.162;4.516;2023-03-23T02:49:32;16.60;64.80
72905;DHT22;61048;52.162;4.516;2023-03-23T02:52:06;16.60;64.70
72905;DHT22;61048;52.162;4.516;2023-03-23T02:54:34;16.60;64.80
72905;DHT22;61048;52.162;4.516;2023-03-23T02:57:02;16.60;64.90
72905;DHT22;61048;52.162;4.516;2023-03-23T02:59:29;16.60;64.80
72905;DHT22;61048;52.162;4.516;2023-03-23T03:02:01;16.60;64.80
72905;DHT22;61048;52.162;4.516;2023-03-23T03:04:33;16.60;64.90
72905;DHT22;61048;52.162;4.516;2023-03-23T03:07:14;16.60;64.90
72905;DHT22;61048;52.162;4.516;2023-03-23T03:09:47;16.60;64.90
72905;DHT22;61048;52.162;4.516;2023-03-23T03:12:23;16.60;64.90
72905;DHT22;61048;52.162;4.516;2023-03-23T03:14:58;16.60;64.90
72905;DHT22;61048;52.162;4.516;2023-03-23T03:17:27;16.60;64.90
72905;DHT22;61048;52.162;4.516;2023-03-23T03:19:58;16.60;65.00
72905;DHT22;61048;52.162;4.516;2023-03-23T03:22:35;16.60;64.90
72905;DHT22;61048;52.162;4.516;2023-03-23T03:25:05;16.60;65.00
72905;DHT22;61048;52.162;4.516;2023-03-23T03:27:33;16.60;65.00
72905;DHT22;61048;52.162;4.516;2023-03-23T03:30:02;16.60;65.00
72905;DHT22;61048;52.162;4.516;2023-03-23T03:32:33;16.60;65.00
72905;DHT22;61048;52.162;4.516;2023-03-23T03:35:03;16.60;65.10
72905;DHT22;61048;52.162;4.516;2023-03-23T03:37:34;16.60;65.00
72905;DHT22;61048;52.162;4.516;2023-03-23T03:40:04;16.60;65.20
72905;DHT22;61048;52.162;4.516;2023-03-23T03:42:36;16.60;65.10
72905;DHT22;61048;52.162;4.516;2023-03-23T03:45:04;16.60;65.20
72905;DHT22;61048;52.162;4.516;2023-03-23T03:47:31;16.60;65.20
72905;DHT22;61048;52.162;4.516;2023-03-23T03:49:58;16.60;65.20
72905;DHT22;61048;52.162;4.516;2023-03-23T03:52:26;16.70;65.20
72905;DHT22;61048;52.162;4.516;2023-03-23T03:54:54;16.70;65.10
72905;DHT22;61048;52.162;4.516;2023-03-23T03:57:21;16.70;65.30
72905;DHT22;61048;52.162;4.516;2023-03-23T03:59:48;16.70;65.10
72905;DHT22;61048;52.162;4.516;2023-03-23T04:02:15;16.70;65.30
72905;DHT22;61048;52.162;4.516;2023-03-23T04:04:45;16.70;65.10
72905;DHT22;61048;52.162;4.516;2023-03-23T04:07:13;16.70;65.10
72905;DHT22;61048;52.162;4.516;2023-03-23T04:09:43;16.70;65.10
72905;DHT22;61048;52.162;4.516;2023-03-23T04:12:12;16.70;65.10
72905;DHT22;61048;52.162;4.516;2023-03-23T04:14:39;16.70;65.10
72905;DHT22;61048;52.162;4.516;2023-03-23T04:17:06;16.70;65.10
72905;DHT22;61048;52.162;4.516;2023-03-23T04:19:36;16.70;65.10
72905;DHT22;61048;52.162;4.516;2023-03-23T04:22:03;16.70;65.10
72905;DHT22;61048;52.162;4.516;2023-03-23T04:24:32;16.70;65.00
72905;DHT22;61048;52.162;4.516;2023-03-23T04:27:02;16.70;65.20
72905;DHT22;61048;52.162;4.516;2023-03-23T04:29:29;16.70;65.20
72905;DHT22;61048;52.162;4.516;2023-03-23T04:31:56;16.70;65.10
72905;DHT22;61048;52.162;4.516;2023-03-23T04:34:23;16.70;65.10
72905;DHT22;61048;52.162;4.516;2023-03-23T04:36:51;16.70;65.00
72905;DHT22;61048;52.162;4.516;2023-03-23T04:39:18;16.70;65.00
72905;DHT22;61048;52.162;4.516;2023-03-23T04:41:45;16.70;64.90
72905;DHT22;61048;52.162;4.516;2023-03-23T04:44:14;16.70;64.90
72905;DHT22;61048;52.162;4.516;2023-03-23T04:46:43;16.70;64.90
72905;DHT22;61048;52.162;4.516;2023-03-23T04:49:15;16.70;64.80
72905;DHT22;61048;52.162;4.516;2023-03-23T04:51:47;16.70;64.80
72905;DHT22;61048;52.162;4.516;2023-03-23T04:54:14;16.70;64.90
72905;DHT22;61048;52.162;4.516;2023-03-23T04:56:41;16.70;64.90
72905;DHT22;61048;52.162;4.516;2023-03-23T04:59:08;16.70;64.80
72905;DHT22;61048;52.162;4.516;2023-03-23T05:01:36;16.70;64.80
72905;DHT22;61048;52.162;4.516;2023-03-23T05:04:04;16.70;64.80
72905;DHT22;61048;52.162;4.516;2023-03-23T05:06:31;16.70;64.70
72905;DHT22;61048;52.162;4.516;2023-03-23T05:08:58;16.70;64.70
72905;DHT22;61048;52.162;4.516;2023-03-23T05:11:25;16.70;64.70
72905;DHT22;61048;52.162;4.516;2023-03-23T05:13:52;16.70;64.70
72905;DHT22;61048;52.162;4.516;2023-03-23T05:16:19;16.70;64.60
72905;DHT22;61048;52.162;4.516;2023-03-23T05:18:47;16.70;64.70
72905;DHT22;61048;52.162;4.516;2023-03-23T05:21:14;16.70;64.60
72905;DHT22;61048;52.162;4.516;2023-03-23T05:23:41;16.70;64.50
72905;DHT22;61048;52.162;4.516;2023-03-23T05:26:08;16.70;64.50
72905;DHT22;61048;52.162;4.516;2023-03-23T05:28:35;16.70;64.50
72905;DHT22;61048;52.162;4.516;2023-03-23T05:31:03;16.70;64.50
72905;DHT22;61048;52.162;4.516;2023-03-23T05:33:30;16.70;64.40
72905;DHT22;61048;52.162;4.516;2023-03-23T05:35:58;16.70;64.40
72905;DHT22;61048;52.162;4.516;2023-03-23T05:38:26;16.70;64.40
72905;DHT22;61048;52.162;4.516;2023-03-23T05:40:53;16.70;64.70
72905;DHT22;61048;52.162;4.516;2023-03-23T05:43:20;16.70;64.60
72905;DHT22;61048;52.162;4.516;2023-03-23T05:45:47;16.70;64.60
72905;DHT22;61048;52.162;4.516;2023-03-23T05:48:14;16.70;64.50
72905;DHT22;61048;52.162;4.516;2023-03-23T05:50:41;16.70;64.60
72905;DHT22;61048;52.162;4.516;2023-03-23T05:53:09;16.70;64.60
72905;DHT22;61048;52.162;4.516;2023-03-23T05:55:36;16.70;64.50
72905;DHT22;61048;52.162;4.516;2023-03-23T05:58:03;16.70;64.90
72905;DHT22;61048;52.162;4.516;2023-03-23T06:00:30;16.70;65.40
72905;DHT22;61048;52.162;4.516;2023-03-23T06:02:58;16.70;65.20
72905;DHT22;61048;52.162;4.516;2023-03-23T06:05:26;16.70;65.90
72905;DHT22;61048;52.162;4.516;2023-03-23T06:07:54;16.80;65.60
72905;DHT22;61048;52.162;4.516;2023-03-23T06:10:23;16.90;65.90
72905;DHT22;61048;52.162;4.516;2023-03-23T06:12:50;16.90;66.10
72905;DHT22;61048;52.162;4.516;2023-03-23T06:15:17;17.00;66.00
72905;DHT22;61048;52.162;4.516;2023-03-23T06:17:44;16.90;66.40
72905;DHT22;61048;52.162;4.516;2023-03-23T06:20:11;16.90;66.40
72905;DHT22;61048;52.162;4.516;2023-03-23T06:22:39;16.90;66.30
72905;DHT22;61048;52.162;4.516;2023-03-23T06:25:08;17.00;66.60
72905;DHT22;61048;52.162;4.516;2023-03-23T06:27:38;17.00;66.80
72905;DHT22;61048;52.162;4.516;2023-03-23T06:30:06;17.00;66.90
72905;DHT22;61048;52.162;4.516;2023-03-23T06:32:33;17.00;67.10
72905;DHT22;61048;52.162;4.516;2023-03-23T06:35:01;17.00;67.00
72905;DHT22;61048;52.162;4.516;2023-03-23T06:37:29;17.00;66.80
72905;DHT22;61048;52.162;4.516;2023-03-23T06:39:56;17.00;66.90
72905;DHT22;61048;52.162;4.516;2023-03-23T06:42:23;17.00;66.90
72905;DHT22;61048;52.162;4.516;2023-03-23T06:44:52;17.00;67.00
72905;DHT22;61048;52.162;4.516;2023-03-23T06:47:22;17.00;66.70
72905;DHT22;61048;52.162;4.516;2023-03-23T06:49:49;17.00;66.70
72905;DHT22;61048;52.162;4.516;2023-03-23T06:52:16;17.10;67.40
72905;DHT22;61048;52.162;4.516;2023-03-23T06:54:43;17.10;67.70
72905;DHT22;61048;52.162;4.516;2023-03-23T06:57:10;17.20;67.70
72905;DHT22;61048;52.162;4.516;2023-03-23T06:59:37;17.20;67.50
72905;DHT22;61048;52.162;4.516;2023-03-23T07:02:05;17.20;67.80
72905;DHT22;61048;52.162;4.516;2023-03-23T07:04:33;17.10;67.30
72905;DHT22;61048;52.162;4.516;2023-03-23T07:07:00;17.00;67.10
72905;DHT22;61048;52.162;4.516;2023-03-23T07:09:27;17.00;66.80
72905;DHT22;61048;52.162;4.516;2023-03-23T07:11:54;16.90;66.50
72905;DHT22;61048;52.162;4.516;2023-03-23T07:14:21;16.90;66.30
72905;DHT22;61048;52.162;4.516;2023-03-23T07:16:48;16.90;66.30
72905;DHT22;61048;52.162;4.516;2023-03-23T07:19:17;16.90;66.00
72905;DHT22;61048;52.162;4.516;2023-03-23T07:21:44;16.80;65.90
72905;DHT22;61048;52.162;4.516;2023-03-23T07:24:11;16.80;65.60
72905;DHT22;61048;52.162;4.516;2023-03-23T07:26:39;16.80;65.70
72905;DHT22;61048;52.162;4.516;2023-03-23T07:29:06;16.80;65.50
72905;DHT22;61048;52.162;4.516;2023-03-23T07:31:34;16.80;65.40
72905;DHT22;61048;52.162;4.516;2023-03-23T07:34:01;17.00;64.90
72905;DHT22;61048;52.162;4.516;2023-03-23T07:36:30;17.10;64.40
72905;DHT22;61048;52.162;4.516;2023-03-23T07:38:58;17.10;64.30
72905;DHT22;61048;52.162;4.516;2023-03-23T07:41:25;17.10;63.80
72905;DHT22;61048;52.162;4.516;2023-03-23T07:43:52;17.10;63.90
72905;DHT22;61048;52.162;4.516;2023-03-23T07:46:18;17.10;63.80
72905;DHT22;61048;52.162;4.516;2023-03-23T07:48:45;17.30;63.50
72905;DHT22;61048;52.162;4.516;2023-03-23T07:51:13;17.30;63.30
72905;DHT22;61048;52.162;4.516;2023-03-23T07:53:43;17.40;63.00
72905;DHT22;61048;52.162;4.516;2023-03-23T07:56:12;17.50;62.70
72905;DHT22;61048;52.162;4.516;2023-03-23T07:58:40;17.40;62.50
72905;DHT22;61048;52.162;4.516;2023-03-23T08:01:07;17.50;62.30
72905;DHT22;61048;52.162;4.516;2023-03-23T08:03:34;17.40;62.40
72905;DHT22;61048;52.162;4.516;2023-03-23T08:06:01;17.40;62.40
72905;DHT22;61048;52.162;4.516;2023-03-23T08:08:28;17.30;62.40
72905;DHT22;61048;52.162;4.516;2023-03-23T08:10:57;17.40;62.30
72905;DHT22;61048;52.162;4.516;2023-03-23T08:13:24;17.40;62.20
72905;DHT22;61048;52.162;4.516;2023-03-23T08:15:51;17.40;62.10
72905;DHT22;61048;52.162;4.516;2023-03-23T08:18:18;17.50;61.90
72905;DHT22;61048;52.162;4.516;2023-03-23T08:20:45;17.60;61.40
72905;DHT22;61048;52.162;4.516;2023-03-23T08:23:12;17.60;61.40
72905;DHT22;61048;52.162;4.516;2023-03-23T08:25:41;17.80;60.90
72905;DHT22;61048;52.162;4.516;2023-03-23T08:28:10;17.90;60.60
72905;DHT22;61048;52.162;4.516;2023-03-23T08:30:40;18.00;60.20
72905;DHT22;61048;52.162;4.516;2023-03-23T08:33:07;17.90;60.10
72905;DHT22;61048;52.162;4.516;2023-03-23T08:35:35;17.90;60.10
72905;DHT22;61048;52.162;4.516;2023-03-23T08:38:03;18.00;59.90
72905;DHT22;61048;52.162;4.516;2023-03-23T08:40:30;18.00;59.80
72905;DHT22;61048;52.162;4.516;2023-03-23T08:42:58;18.00;59.90
72905;DHT22;61048;52.162;4.516;2023-03-23T08:45:26;17.80;60.10
72905;DHT22;61048;52.162;4.516;2023-03-23T08:47:53;17.80;60.20
72905;DHT22;61048;52.162;4.516;2023-03-23T08:50:23;17.70;60.50
72905;DHT22;61048;52.162;4.516;2023-03-23T08:52:51;17.60;60.50
72905;DHT22;61048;52.162;4.516;2023-03-23T08:55:19;17.60;60.40
72905;DHT22;61048;52.162;4.516;2023-03-23T08:57:46;17.50;60.40
72905;DHT22;61048;52.162;4.516;2023-03-23T09:00:15;17.50;60.30
72905;DHT22;61048;52.162;4.516;2023-03-23T09:02:45;17.50;60.10
72905;DHT22;61048;52.162;4.516;2023-03-23T09:05:14;17.50;59.80
72905;DHT22;61048;52.162;4.516;2023-03-23T09:07:43;17.40;59.90
72905;DHT22;61048;52.162;4.516;2023-03-23T09:10:11;17.40;59.90
72905;DHT22;61048;52.162;4.516;2023-03-23T09:12:39;17.40;59.50
72905;DHT22;61048;52.162;4.516;2023-03-23T09:15:08;17.30;59.30
72905;DHT22;61048;52.162;4.516;2023-03-23T09:17:36;17.40;59.40
72905;DHT22;61048;52.162;4.516;2023-03-23T09:20:06;17.30;59.30
72905;DHT22;61048;52.162;4.516;2023-03-23T09:22:37;17.40;59.10
72905;DHT22;61048;52.162;4.516;2023-03-23T09:25:05;17.40;59.10
72905;DHT22;61048;52.162;4.516;2023-03-23T09:27:33;17.40;58.80
72905;DHT22;61048;52.162;4.516;2023-03-23T09:30:00;17.40;58.80
72905;DHT22;61048;52.162;4.516;2023-03-23T09:32:27;17.40;58.50
72905;DHT22;61048;52.162;4.516;2023-03-23T09:34:54;17.40;58.50
72905;DHT22;61048;52.162;4.516;2023-03-23T09:37:23;17.40;58.50
72905;DHT22;61048;52.162;4.516;2023-03-23T09:39:50;17.40;58.40
72905;DHT22;61048;52.162;4.516;2023-03-23T09:45:14;17.50;58.30
72905;DHT22;61048;52.162;4.516;2023-03-23T09:47:52;17.40;58.20
72905;DHT22;61048;52.162;4.516;2023-03-23T09:50:21;17.40;58.10
72905;DHT22;61048;52.162;4.516;2023-03-23T09:52:53;17.40;58.30
72905;DHT22;61048;52.162;4.516;2023-03-23T09:55:21;17.40;58.10
72905;DHT22;61048;52.162;4.516;2023-03-23T09:57:52;17.40;58.20
72905;DHT22;61048;52.162;4.516;2023-03-23T10:00:24;17.40;58.00
72905;DHT22;61048;52.162;4.516;2023-03-23T10:02:59;17.40;58.10
72905;DHT22;61048;52.162;4.516;2023-03-23T10:05:31;17.40;57.90
72905;DHT22;61048;52.162;4.516;2023-03-23T10:08:02;17.40;57.80
72905;DHT22;61048;52.162;4.516;2023-03-23T10:10:37;17.40;57.90
72905;DHT22;61048;52.162;4.516;2023-03-23T10:13:16;17.40;57.90
72905;DHT22;61048;52.162;4.516;2023-03-23T10:15:46;17.40;57.90
72905;DHT22;61048;52.162;4.516;2023-03-23T10:18:17;17.40;57.80
72905;DHT22;61048;52.162;4.516;2023-03-23T10:20:50;17.40;57.90
72905;DHT22;61048;52.162;4.516;2023-03-23T10:23:47;17.30;57.70
72905;DHT22;61048;52.162;4.516;2023-03-23T10:26:25;17.30;57.60
72905;DHT22;61048;52.162;4.516;2023-03-23T10:28:57;17.30;57.60
72905;DHT22;61048;52.162;4.516;2023-03-23T10:31:30;17.20;57.80
72905;DHT22;61048;52.162;4.516;2023-03-23T10:34:02;17.20;57.70
72905;DHT22;61048;52.162;4.516;2023-03-23T10:36:33;17.20;57.60
72905;DHT22;61048;52.162;4.516;2023-03-23T10:39:06;17.20;57.70
72905;DHT22;61048;52.162;4.516;2023-03-23T10:41:37;17.20;57.90
72905;DHT22;61048;52.162;4.516;2023-03-23T10:44:10;17.10;57.80
72905;DHT22;61048;52.162;4.516;2023-03-23T10:46:42;17.10;57.60
72905;DHT22;61048;52.162;4.516;2023-03-23T10:49:17;17.10;57.90
72905;DHT22;61048;52.162;4.516;2023-03-23T10:51:49;17.10;57.80
72905;DHT22;61048;52.162;4.516;2023-03-23T10:54:31;17.20;57.80
72905;DHT22;61048;52.162;4.516;2023-03-23T10:56:59;17.20;57.50
72905;DHT22;61048;52.162;4.516;2023-03-23T10:59:28;17.20;57.60
72905;DHT22;61048;52.162;4.516;2023-03-23T11:01:58;17.20;57.30
72905;DHT22;61048;52.162;4.516;2023-03-23T11:04:28;17.20;57.20
72905;DHT22;61048;52.162;4.516;2023-03-23T11:06:59;17.20;57.20
72905;DHT22;61048;52.162;4.516;2023-03-23T11:09:36;17.20;57.10
72905;DHT22;61048;52.162;4.516;2023-03-23T11:12:03;17.10;56.90
72905;DHT22;61048;52.162;4.516;2023-03-23T11:14:32;17.10;56.70
72905;DHT22;61048;52.162;4.516;2023-03-23T11:17:01;17.10;57.00
72905;DHT22;61048;52.162;4.516;2023-03-23T11:19:30;17.10;56.90
72905;DHT22;61048;52.162;4.516;2023-03-23T11:22:04;17.10;56.80
72905;DHT22;61048;52.162;4.516;2023-03-23T11:24:33;17.10;56.60
72905;DHT22;61048;52.162;4.516;2023-03-23T11:27:03;17.10;56.80
72905;DHT22;61048;52.162;4.516;2023-03-23T11:29:33;17.10;56.60
72905;DHT22;61048;52.162;4.516;2023-03-23T11:32:05;17.20;56.50
72905;DHT22;61048;52.162;4.516;2023-03-23T11:34:36;17.20;56.40
72905;DHT22;61048;52.162;4.516;2023-03-23T11:37:09;17.20;56.10
72905;DHT22;61048;52.162;4.516;2023-03-23T11:39:48;17.20;56.10
72905;DHT22;61048;52.162;4.516;2023-03-23T11:42:19;17.20;56.00
72905;DHT22;61048;52.162;4.516;2023-03-23T11:44:47;17.20;55.80
72905;DHT22;61048;52.162;4.516;2023-03-23T11:47:17;17.20;56.00
72905;DHT22;61048;52.162;4.516;2023-03-23T11:49:50;17.10;55.90
72905;DHT22;61048;52.162;4.516;2023-03-23T11:52:24;17.10;55.80
72905;DHT22;61048;52.162;4.516;2023-03-23T11:54:57;17.10;56.00
72905;DHT22;61048;52.162;4.516;2023-03-23T11:57:28;17.10;56.20
72905;DHT22;61048;52.162;4.516;2023-03-23T11:59:56;17.10;56.20
72905;DHT22;61048;52.162;4.516;2023-03-23T12:05:34;17.10;56.20
72905;DHT22;61048;52.162;4.516;2023-03-23T12:11:03;17.10;56.10
72905;DHT22;61048;52.162;4.516;2023-03-23T12:13:46;17.10;56.10
72905;DHT22;61048;52.162;4.516;2023-03-23T12:16:29;17.20;55.90
72905;DHT22;61048;52.162;4.516;2023-03-23T12:19:01;17.20;55.80
72905;DHT22;61048;52.162;4.516;2023-03-23T12:21:35;17.20;55.70
72905;DHT22;61048;52.162;4.516;2023-03-23T12:24:10;17.30;55.70
72905;DHT22;61048;52.162;4.516;2023-03-23T12:26:47;17.30;55.30
72905;DHT22;61048;52.162;4.516;2023-03-23T12:29:38;17.30;55.30
72905;DHT22;61048;52.162;4.516;2023-03-23T12:32:24;17.30;55.40
72905;DHT22;61048;52.162;4.516;2023-03-23T12:35:01;17.30;55.20
72905;DHT22;61048;52.162;4.516;2023-03-23T12:37:45;17.40;55.00
72905;DHT22;61048;52.162;4.516;2023-03-23T12:40:19;17.50;55.00
72905;DHT22;61048;52.162;4.516;2023-03-23T12:42:55;17.50;55.20
72905;DHT22;61048;52.162;4.516;2023-03-23T12:45:49;17.60;55.10
72905;DHT22;61048;52.162;4.516;2023-03-23T12:48:21;17.60;55.30
72905;DHT22;61048;52.162;4.516;2023-03-23T12:51:06;17.60;55.20
72905;DHT22;61048;52.162;4.516;2023-03-23T12:53:39;17.70;55.40
72905;DHT22;61048;52.162;4.516;2023-03-23T12:56:14;17.70;55.70
72905;DHT22;61048;52.162;4.516;2023-03-23T12:58:45;17.70;55.80
72905;DHT22;61048;52.162;4.516;2023-03-23T13:01:15;17.80;56.10
72905;DHT22;61048;52.162;4.516;2023-03-23T13:03:51;17.80;56.00
72905;DHT22;61048;52.162;4.516;2023-03-23T13:06:24;17.80;55.90
72905;DHT22;61048;52.162;4.516;2023-03-23T13:08:58;17.90;56.00
72905;DHT22;61048;52.162;4.516;2023-03-23T13:11:30;17.90;56.00
72905;DHT22;61048;52.162;4.516;2023-03-23T13:14:08;17.90;55.40
72905;DHT22;61048;52.162;4.516;2023-03-23T13:16:47;17.90;55.20
72905;DHT22;61048;52.162;4.516;2023-03-23T13:19:22;17.90;54.10
72905;DHT22;61048;52.162;4.516;2023-03-23T13:21:55;17.80;53.70
72905;DHT22;61048;52.162;4.516;2023-03-23T13:24:26;17.90;54.50
72905;DHT22;61048;52.162;4.516;2023-03-23T13:26:55;17.90;55.00
72905;DHT22;61048;52.162;4.516;2023-03-23T13:29:25;18.00;55.00
72905;DHT22;61048;52.162;4.516;2023-03-23T13:32:05;18.00;55.20
72905;DHT22;61048;52.162;4.516;2023-03-23T13:34:32;18.10;55.00
72905;DHT22;61048;52.162;4.516;2023-03-23T13:37:01;18.10;54.80
72905;DHT22;61048;52.162;4.516;2023-03-23T13:39:31;18.10;54.70
72905;DHT22;61048;52.162;4.516;2023-03-23T13:42:02;18.10;54.80
72905;DHT22;61048;52.162;4.516;2023-03-23T13:44:43;18.10;54.70
72905;DHT22;61048;52.162;4.516;2023-03-23T13:47:25;18.10;54.80
72905;DHT22;61048;52.162;4.516;2023-03-23T13:49:55;18.10;54.70
72905;DHT22;61048;52.162;4.516;2023-03-23T13:52:24;18.10;54.80
72905;DHT22;61048;52.162;4.516;2023-03-23T13:55:07;18.10;54.70
72905;DHT22;61048;52.162;4.516;2023-03-23T13:57:37;18.20;55.00
72905;DHT22;61048;52.162;4.516;2023-03-23T14:00:35;18.20;54.80
72905;DHT22;61048;52.162;4.516;2023-03-23T14:03:05;18.20;54.80
72905;DHT22;61048;52.162;4.516;2023-03-23T14:05:36;18.30;54.60
72905;DHT22;61048;52.162;4.516;2023-03-23T14:08:12;18.30;54.70
72905;DHT22;61048;52.162;4.516;2023-03-23T14:10:43;18.30;54.60
72905;DHT22;61048;52.162;4.516;2023-03-23T14:13:17;18.30;54.50
72905;DHT22;61048;52.162;4.516;2023-03-23T14:15:57;18.30;54.40
72905;DHT22;61048;52.162;4.516;2023-03-23T14:18:30;18.40;54.30
72905;DHT22;61048;52.162;4.516;2023-03-23T14:20:59;18.40;54.20
72905;DHT22;61048;52.162;4.516;2023-03-23T14:23:26;18.40;54.20
72905;DHT22;61048;52.162;4.516;2023-03-23T14:25:59;18.40;54.10
72905;DHT22;61048;52.162;4.516;2023-03-23T14:28:37;18.40;54.00
72905;DHT22;61048;52.162;4.516;2023-03-23T14:31:16;18.40;54.20
72905;DHT22;61048;52.162;4.516;2023-03-23T14:33:44;18.40;54.20
72905;DHT22;61048;52.162;4.516;2023-03-23T14:36:11;18.50;54.10
72905;DHT22;61048;52.162;4.516;2023-03-23T14:38:38;18.40;54.20
72905;DHT22;61048;52.162;4.516;2023-03-23T14:41:05;18.50;54.10
72905;DHT22;61048;52.162;4.516;2023-03-23T14:43:34;18.50;54.20
72905;DHT22;61048;52.162;4.516;2023-03-23T14:46:07;18.60;53.90
72905;DHT22;61048;52.162;4.516;2023-03-23T14:48:35;18.60;54.00
72905;DHT22;61048;52.162;4.516;2023-03-23T14:51:04;18.60;53.90
72905;DHT22;61048;52.162;4.516;2023-03-23T14:53:35;18.70;54.00
72905;DHT22;61048;52.162;4.516;2023-03-23T14:56:08;18.80;53.80
72905;DHT22;61048;52.162;4.516;2023-03-23T14:58:35;18.80;53.70
72905;DHT22;61048;52.162;4.516;2023-03-23T15:01:07;18.90;53.50
72905;DHT22;61048;52.162;4.516;2023-03-23T15:03:37;19.10;53.40
72905;DHT22;61048;52.162;4.516;2023-03-23T15:06:11;19.30;53.00
72905;DHT22;61048;52.162;4.516;2023-03-23T15:08:39;19.80;52.30
72905;DHT22;61048;52.162;4.516;2023-03-23T15:11:11;20.70;49.90
72905;DHT22;61048;52.162;4.516;2023-03-23T15:13:43;21.00;49.10
72905;DHT22;61048;52.162;4.516;2023-03-23T15:16:19;22.00;47.60
72905;DHT22;61048;52.162;4.516;2023-03-23T15:18:49;23.20;45.00
72905;DHT22;61048;52.162;4.516;2023-03-23T15:21:26;23.50;44.30
72905;DHT22;61048;52.162;4.516;2023-03-23T15:23:53;22.50;45.40
72905;DHT22;61048;52.162;4.516;2023-03-23T15:26:42;23.00;45.00
72905;DHT22;61048;52.162;4.516;2023-03-23T15:29:14;23.00;45.00
72905;DHT22;61048;52.162;4.516;2023-03-23T15:31:45;23.90;43.50
72905;DHT22;61048;52.162;4.516;2023-03-23T15:34:19;24.30;42.90
72905;DHT22;61048;52.162;4.516;2023-03-23T15:36:52;24.50;42.40
72905;DHT22;61048;52.162;4.516;2023-03-23T15:39:21;24.40;42.40
72905;DHT22;61048;52.162;4.516;2023-03-23T15:41:50;24.50;42.20
72905;DHT22;61048;52.162;4.516;2023-03-23T15:44:24;24.20;42.50
72905;DHT22;61048;52.162;4.516;2023-03-23T15:47:02;24.10;42.70
72905;DHT22;61048;52.162;4.516;2023-03-23T15:49:29;22.90;44.20
72905;DHT22;61048;52.162;4.516;2023-03-23T15:51:56;21.60;46.40
72905;DHT22;61048;52.162;4.516;2023-03-23T15:54:23;20.90;48.10
72905;DHT22;61048;52.162;4.516;2023-03-23T15:56:50;20.40;49.20
72905;DHT22;61048;52.162;4.516;2023-03-23T15:59:17;20.10;50.00